sensor_id;sensor_type;location;lat;lon;timestamp;pressure;altitude;pressure_sealevel;temperature;humidity
829;BME280;396;52.558;13.188;2022-07-17T00:02:13;101995.75;;;13.71;71.58
829;BME280;396;52.558;13.188;2022-07-17T00:04:40;101994.19;;;13.65;73.85
829;BME280;396;52.558;13.188;2022-07-17T00:07:08;101995.56;;;13.62;75.26
829;BME280;396;52.558;13.188;2022-07-17T00:09:35;101989.38;;;13.57;76.41
829;BME280;396;52.558;13.188;2022-07-17T00:12:01;101993.44;;;13.59;76.79
829;BME280;396;52.558;13.188;2022-07-17T00:14:28;101992.03;;;13.62;76.70
829;BME280;396;52.558;13.188;2022-07-17T00:16:55;101988.00;;;13.59;77.14
829;BME280;396;52.558;13.188;2022-07-17T00:19:23;101991.53;;;13.60;77.34
829;BME280;396;52.558;13.188;2022-07-17T00:21:50;101996.16;;;13.59;77.05
829;BME280;396;52.558;13.188;2022-07-17T00:24:18;101991.59;;;13.50;78.06
829;BME280;396;52.558;13.188;2022-07-17T00:26:46;101999.56;;;13.46;78.27
829;BME280;396;52.558;13.188;2022-07-17T00:29:13;101998.50;;;13.42;78.93
829;BME280;396;52.558;13.188;2022-07-17T00:31:39;101999.63;;;13.36;79.36
829;BME280;396;52.558;13.188;2022-07-17T00:34:06;101990.94;;;13.34;79.56
829;BME280;396;52.558;13.188;2022-07-17T00:36:32;101991.50;;;13.31;79.21
829;BME280;396;52.558;13.188;2022-07-17T00:38:59;101997.25;;;13.29;79.60
829;BME280;396;52.558;13.188;2022-07-17T00:41:27;101993.13;;;13.32;79.09
829;BME280;396;52.558;13.188;2022-07-17T00:43:54;101997.25;;;13.29;79.09
829;BME280;396;52.558;13.188;2022-07-17T00:46:20;101989.38;;;13.23;79.63
829;BME280;396;52.558;13.188;2022-07-17T00:48:47;101990.25;;;13.13;79.87
829;BME280;396;52.558;13.188;2022-07-17T00:51:14;101980.97;;;13.14;80.64
829;BME280;396;52.558;13.188;2022-07-17T00:53:42;101985.38;;;13.10;80.05
829;BME280;396;52.558;13.188;2022-07-17T00:56:10;101984.88;;;13.03;77.26
829;BME280;396;52.558;13.188;2022-07-17T00:58:39;101982.75;;;12.95;76.20
829;BME280;396;52.558;13.188;2022-07-17T01:01:06;101988.31;;;12.79;76.39
829;BME280;396;52.558;13.188;2022-07-17T01:03:33;101984.28;;;12.72;78.21
829;BME280;396;52.558;13.188;2022-07-17T01:05:59;101987.03;;;12.67;79.45
829;BME280;396;52.558;13.188;2022-07-17T01:08:26;101987.56;;;12.63;80.14
829;BME280;396;52.558;13.188;2022-07-17T01:10:53;101980.25;;;12.59;80.94
829;BME280;396;52.558;13.188;2022-07-17T01:13:20;101990.59;;;12.62;81.27
829;BME280;396;52.558;13.188;2022-07-17T01:15:48;101984.63;;;12.55;81.63
829;BME280;396;52.558;13.188;2022-07-17T01:18:16;101992.25;;;12.53;82.29
829;BME280;396;52.558;13.188;2022-07-17T01:20:44;101986.00;;;12.52;82.29
829;BME280;396;52.558;13.188;2022-07-17T01:23:13;101982.19;;;12.53;82.45
829;BME280;396;52.558;13.188;2022-07-17T01:25:40;101985.19;;;12.52;82.27
829;BME280;396;52.558;13.188;2022-07-17T01:28:07;101989.28;;;12.49;82.37
829;BME280;396;52.558;13.188;2022-07-17T01:30:34;101983.63;;;12.41;82.68
829;BME280;396;52.558;13.188;2022-07-17T01:33:00;101984.72;;;12.40;82.44
829;BME280;396;52.558;13.188;2022-07-17T01:35:28;101989.06;;;12.41;82.32
829;BME280;396;52.558;13.188;2022-07-17T01:37:54;101983.66;;;12.35;82.69
829;BME280;396;52.558;13.188;2022-07-17T01:40:22;101993.97;;;12.33;82.54
829;BME280;396;52.558;13.188;2022-07-17T01:42:49;101990.44;;;12.33;82.43
829;BME280;396;52.558;13.188;2022-07-17T01:45:18;101986.38;;;12.25;82.79
829;BME280;396;52.558;13.188;2022-07-17T01:47:45;101984.50;;;12.21;83.44
829;BME280;396;52.558;13.188;2022-07-17T01:50:13;101977.19;;;12.16;82.98
829;BME280;396;52.558;13.188;2022-07-17T01:52:41;101978.56;;;12.08;83.47
829;BME280;396;52.558;13.188;2022-07-17T01:55:10;101976.69;;;12.09;83.55
829;BME280;396;52.558;13.188;2022-07-17T01:57:38;101976.13;;;12.07;83.89
829;BME280;396;52.558;13.188;2022-07-17T02:00:08;101982.38;;;12.02;84.25
829;BME280;396;52.558;13.188;2022-07-17T02:02:36;101977.25;;;11.96;84.48
829;BME280;396;52.558;13.188;2022-07-17T02:05:03;101984.34;;;11.92;81.62
829;BME280;396;52.558;13.188;2022-07-17T02:07:29;101987.88;;;11.87;81.29
829;BME280;396;52.558;13.188;2022-07-17T02:09:56;101988.41;;;11.74;80.39
829;BME280;396;52.558;13.188;2022-07-17T02:12:23;101983.53;;;11.66;80.75
829;BME280;396;52.558;13.188;2022-07-17T02:14:51;101980.84;;;11.60;81.12
829;BME280;396;52.558;13.188;2022-07-17T02:17:17;101981.38;;;11.57;83.22
829;BME280;396;52.558;13.188;2022-07-17T02:19:44;101979.47;;;11.53;84.61
829;BME280;396;52.558;13.188;2022-07-17T02:22:11;101980.28;;;11.53;84.83
829;BME280;396;52.558;13.188;2022-07-17T02:24:37;101981.66;;;11.56;85.41
829;BME280;396;52.558;13.188;2022-07-17T02:27:04;101977.84;;;11.52;85.63
829;BME280;396;52.558;13.188;2022-07-17T02:29:30;101975.41;;;11.60;85.72
829;BME280;396;52.558;13.188;2022-07-17T02:31:58;101972.41;;;11.62;85.55
829;BME280;396;52.558;13.188;2022-07-17T02:34:25;101984.88;;;11.63;85.42
829;BME280;396;52.558;13.188;2022-07-17T02:36:51;101980.28;;;11.69;85.75
829;BME280;396;52.558;13.188;2022-07-17T02:39:18;101978.63;;;11.68;85.31
829;BME280;396;52.558;13.188;2022-07-17T02:41:45;101975.66;;;11.64;84.97
829;BME280;396;52.558;13.188;2022-07-17T02:44:11;101992.50;;;11.61;85.48
829;BME280;396;52.558;13.188;2022-07-17T02:46:38;101992.50;;;11.56;85.65
829;BME280;396;52.558;13.188;2022-07-17T02:49:06;101990.88;;;11.60;85.93
829;BME280;396;52.558;13.188;2022-07-17T02:51:32;101987.59;;;11.58;86.06
829;BME280;396;52.558;13.188;2022-07-17T02:53:59;101997.66;;;11.57;86.22
829;BME280;396;52.558;13.188;2022-07-17T02:56:25;102000.88;;;11.59;85.49
829;BME280;396;52.558;13.188;2022-07-17T02:58:52;101991.41;;;11.52;83.27
829;BME280;396;52.558;13.188;2022-07-17T03:01:19;102000.09;;;11.39;82.71
829;BME280;396;52.558;13.188;2022-07-17T03:03:45;102000.63;;;11.35;82.87
829;BME280;396;52.558;13.188;2022-07-17T03:06:13;101993.59;;;11.40;83.84
829;BME280;396;52.558;13.188;2022-07-17T03:08:40;102006.63;;;11.43;85.48
829;BME280;396;52.558;13.188;2022-07-17T03:11:06;101996.28;;;11.50;86.40
829;BME280;396;52.558;13.188;2022-07-17T03:13:33;102004.44;;;11.60;86.16
829;BME280;396;52.558;13.188;2022-07-17T03:16:00;101998.47;;;11.58;85.64
829;BME280;396;52.558;13.188;2022-07-17T03:18:26;101998.47;;;11.58;86.12
829;BME280;396;52.558;13.188;2022-07-17T03:20:53;102000.09;;;11.54;86.46
829;BME280;396;52.558;13.188;2022-07-17T03:23:21;102001.19;;;11.53;86.96
829;BME280;396;52.558;13.188;2022-07-17T03:25:48;102002.28;;;11.52;86.83
829;BME280;396;52.558;13.188;2022-07-17T03:28:14;102009.31;;;11.53;87.02
829;BME280;396;52.558;13.188;2022-07-17T03:30:41;102010.94;;;11.59;86.35
829;BME280;396;52.558;13.188;2022-07-17T03:33:07;102014.47;;;11.59;86.09
829;BME280;396;52.558;13.188;2022-07-17T03:35:34;102014.22;;;11.56;86.03
829;BME280;396;52.558;13.188;2022-07-17T03:38:01;102020.19;;;11.53;87.15
829;BME280;396;52.558;13.188;2022-07-17T03:40:29;102027.22;;;11.49;86.79
829;BME280;396;52.558;13.188;2022-07-17T03:42:56;102024.00;;;11.47;84.49
829;BME280;396;52.558;13.188;2022-07-17T03:45:22;102028.56;;;11.36;83.26
829;BME280;396;52.558;13.188;2022-07-17T03:47:49;102041.63;;;11.29;82.95
829;BME280;396;52.558;13.188;2022-07-17T03:50:15;102042.38;;;11.24;83.36
829;BME280;396;52.558;13.188;2022-07-17T03:52:42;102045.66;;;11.21;84.72
829;BME280;396;52.558;13.188;2022-07-17T03:55:09;102051.09;;;11.21;86.84
829;BME280;396;52.558;13.188;2022-07-17T03:57:37;102055.44;;;11.32;87.87
829;BME280;396;52.558;13.188;2022-07-17T04:00:04;102053.00;;;11.36;88.27
829;BME280;396;52.558;13.188;2022-07-17T04:02:32;102057.06;;;11.44;88.59
829;BME280;396;52.558;13.188;2022-07-17T04:04:58;102061.97;;;11.52;89.23
829;BME280;396;52.558;13.188;2022-07-17T04:07:25;102057.88;;;11.59;89.51
829;BME280;396;52.558;13.188;2022-07-17T04:09:55;102059.78;;;11.64;89.81
829;BME280;396;52.558;13.188;2022-07-17T04:12:22;102063.03;;;11.76;89.70
829;BME280;396;52.558;13.188;2022-07-17T04:14:50;102063.34;;;11.90;88.79
829;BME280;396;52.558;13.188;2022-07-17T04:17:17;102070.38;;;12.01;88.66
829;BME280;396;52.558;13.188;2022-07-17T04:19:43;102075.00;;;12.06;88.39
829;BME280;396;52.558;13.188;2022-07-17T04:22:10;102069.84;;;12.09;88.13
829;BME280;396;52.558;13.188;2022-07-17T04:24:37;102065.47;;;12.24;87.38
829;BME280;396;52.558;13.188;2022-07-17T04:27:03;102066.22;;;12.34;87.15
829;BME280;396;52.558;13.188;2022-07-17T04:29:30;102068.41;;;12.37;87.45
829;BME280;396;52.558;13.188;2022-07-17T04:31:58;102069.47;;;12.47;87.40
829;BME280;396;52.558;13.188;2022-07-17T04:34:25;102067.53;;;12.52;87.70
829;BME280;396;52.558;13.188;2022-07-17T04:36:52;102077.56;;;12.57;87.64
829;BME280;396;52.558;13.188;2022-07-17T04:39:18;102085.97;;;12.66;88.86
829;BME280;396;52.558;13.188;2022-07-17T04:41:45;102085.38;;;12.74;87.09
829;BME280;396;52.558;13.188;2022-07-17T04:44:12;102085.38;;;12.84;87.15
829;BME280;396;52.558;13.188;2022-07-17T04:46:38;102084.97;;;13.01;86.78
829;BME280;396;52.558;13.188;2022-07-17T04:49:06;102090.94;;;13.08;85.80
829;BME280;396;52.558;13.188;2022-07-17T04:51:33;102094.69;;;13.17;85.61
829;BME280;396;52.558;13.188;2022-07-17T04:54:00;102094.69;;;13.22;85.22
829;BME280;396;52.558;13.188;2022-07-17T04:56:27;102088.66;;;13.30;84.50
829;BME280;396;52.558;13.188;2022-07-17T04:58:53;102087.53;;;13.36;84.76
829;BME280;396;52.558;13.188;2022-07-17T05:01:20;102089.66;;;13.45;84.89
829;BME280;396;52.558;13.188;2022-07-17T05:03:47;102091.25;;;13.51;84.46
829;BME280;396;52.558;13.188;2022-07-17T05:06:15;102097.47;;;13.56;83.91
829;BME280;396;52.558;13.188;2022-07-17T05:08:41;102089.53;;;13.60;84.18
829;BME280;396;52.558;13.188;2022-07-17T05:11:08;102090.31;;;13.66;84.29
829;BME280;396;52.558;13.188;2022-07-17T05:13:35;102091.63;;;13.73;83.82
829;BME280;396;52.558;13.188;2022-07-17T05:16:01;102092.69;;;13.77;84.35
829;BME280;396;52.558;13.188;2022-07-17T05:18:28;102089.66;;;13.79;83.77
829;BME280;396;52.558;13.188;2022-07-17T05:20:55;102090.66;;;13.88;84.00
829;BME280;396;52.558;13.188;2022-07-17T05:23:22;102098.72;;;13.98;82.55
829;BME280;396;52.558;13.188;2022-07-17T05:25:49;102091.88;;;14.06;81.69
829;BME280;396;52.558;13.188;2022-07-17T05:28:16;102083.56;;;14.16;81.24
829;BME280;396;52.558;13.188;2022-07-17T05:30:42;102098.50;;;14.24;80.95
829;BME280;396;52.558;13.188;2022-07-17T05:33:09;102101.41;;;14.32;81.26
829;BME280;396;52.558;13.188;2022-07-17T05:35:35;102108.38;;;14.44;80.35
829;BME280;396;52.558;13.188;2022-07-17T05:38:02;102098.19;;;14.54;79.08
829;BME280;396;52.558;13.188;2022-07-17T05:40:32;102091.53;;;14.66;77.10
829;BME280;396;52.558;13.188;2022-07-17T05:42:58;102102.63;;;14.74;77.14
829;BME280;396;52.558;13.188;2022-07-17T05:45:25;102102.47;;;14.84;77.11
829;BME280;396;52.558;13.188;2022-07-17T05:47:52;102108.31;;;14.97;76.64
829;BME280;396;52.558;13.188;2022-07-17T05:50:19;102106.56;;;15.06;75.62
829;BME280;396;52.558;13.188;2022-07-17T05:52:45;102107.22;;;15.17;75.29
829;BME280;396;52.558;13.188;2022-07-17T05:55:12;102126.88;;;15.19;73.58
829;BME280;396;52.558;13.188;2022-07-17T05:57:40;102119.41;;;15.24;73.46
829;BME280;396;52.558;13.188;2022-07-17T06:00:07;102118.91;;;15.41;71.84
829;BME280;396;52.558;13.188;2022-07-17T06:02:34;102124.41;;;15.55;71.32
829;BME280;396;52.558;13.188;2022-07-17T06:05:01;102120.34;;;15.71;69.37
829;BME280;396;52.558;13.188;2022-07-17T06:07:28;102119.31;;;15.86;68.16
829;BME280;396;52.558;13.188;2022-07-17T06:09:54;102127.84;;;15.98;67.93
829;BME280;396;52.558;13.188;2022-07-17T06:12:21;102129.50;;;16.13;66.67
829;BME280;396;52.558;13.188;2022-07-17T06:14:49;102132.72;;;16.15;66.73
829;BME280;396;52.558;13.188;2022-07-17T06:17:16;102123.34;;;16.21;65.64
829;BME280;396;52.558;13.188;2022-07-17T06:19:42;102127.50;;;16.32;65.92
829;BME280;396;52.558;13.188;2022-07-17T06:22:09;102126.09;;;16.35;64.04
829;BME280;396;52.558;13.188;2022-07-17T06:24:35;102129.22;;;16.42;65.00
829;BME280;396;52.558;13.188;2022-07-17T06:27:02;102127.50;;;16.60;64.68
829;BME280;396;52.558;13.188;2022-07-17T06:29:29;102132.28;;;16.54;64.79
829;BME280;396;52.558;13.188;2022-07-17T06:31:57;102134.09;;;16.59;63.52
829;BME280;396;52.558;13.188;2022-07-17T06:34:23;102129.06;;;16.66;63.12
829;BME280;396;52.558;13.188;2022-07-17T06:36:50;102135.94;;;16.63;64.20
829;BME280;396;52.558;13.188;2022-07-17T06:39:16;102134.34;;;16.76;64.60
829;BME280;396;52.558;13.188;2022-07-17T06:41:43;102142.94;;;16.70;63.13
829;BME280;396;52.558;13.188;2022-07-17T06:44:10;102142.94;;;16.70;64.47
829;BME280;396;52.558;13.188;2022-07-17T06:46:36;102140.34;;;16.78;63.25
829;BME280;396;52.558;13.188;2022-07-17T06:49:04;102135.34;;;16.80;63.60
829;BME280;396;52.558;13.188;2022-07-17T06:51:31;102138.72;;;16.91;63.37
829;BME280;396;52.558;13.188;2022-07-17T06:53:58;102141.25;;;16.87;63.81
829;BME280;396;52.558;13.188;2022-07-17T06:56:24;102136.47;;;16.79;61.61
829;BME280;396;52.558;13.188;2022-07-17T06:58:51;102141.94;;;16.79;61.59
829;BME280;396;52.558;13.188;2022-07-17T07:01:17;102140.59;;;16.90;62.28
829;BME280;396;52.558;13.188;2022-07-17T07:03:44;102154.28;;;17.04;61.87
829;BME280;396;52.558;13.188;2022-07-17T07:06:12;102153.38;;;17.09;61.98
829;BME280;396;52.558;13.188;2022-07-17T07:08:38;102156.31;;;17.12;61.78
829;BME280;396;52.558;13.188;2022-07-17T07:11:05;102168.69;;;17.10;61.19
829;BME280;396;52.558;13.188;2022-07-17T07:13:32;102159.03;;;17.12;61.87
829;BME280;396;52.558;13.188;2022-07-17T07:15:59;102157.50;;;17.20;61.18
829;BME280;396;52.558;13.188;2022-07-17T07:18:26;102163.34;;;17.05;61.39
829;BME280;396;52.558;13.188;2022-07-17T07:20:52;102159.69;;;16.96;62.35
829;BME280;396;52.558;13.188;2022-07-17T07:23:20;102168.09;;;16.85;63.93
829;BME280;396;52.558;13.188;2022-07-17T07:25:47;102159.78;;;16.90;62.77
829;BME280;396;52.558;13.188;2022-07-17T07:28:13;102157.53;;;17.06;62.64
829;BME280;396;52.558;13.188;2022-07-17T07:30:40;102160.94;;;17.26;62.02
829;BME280;396;52.558;13.188;2022-07-17T07:33:06;102157.59;;;17.29;61.24
829;BME280;396;52.558;13.188;2022-07-17T07:35:33;102170.50;;;17.28;61.98
829;BME280;396;52.558;13.188;2022-07-17T07:38:00;102166.00;;;17.32;61.98
829;BME280;396;52.558;13.188;2022-07-17T07:40:28;102168.44;;;17.34;61.10
829;BME280;396;52.558;13.188;2022-07-17T07:42:56;102169.06;;;17.17;62.18
829;BME280;396;52.558;13.188;2022-07-17T07:45:22;102172.44;;;17.14;62.51
829;BME280;396;52.558;13.188;2022-07-17T07:47:50;102169.59;;;17.19;62.78
829;BME280;396;52.558;13.188;2022-07-17T07:50:17;102167.88;;;17.23;62.02
829;BME280;396;52.558;13.188;2022-07-17T07:52:44;102166.84;;;17.19;62.41
829;BME280;396;52.558;13.188;2022-07-17T07:55:12;102180.66;;;17.14;63.32
829;BME280;396;52.558;13.188;2022-07-17T07:57:40;102179.75;;;17.19;63.11
829;BME280;396;52.558;13.188;2022-07-17T08:00:08;102185.31;;;17.27;63.33
829;BME280;396;52.558;13.188;2022-07-17T08:02:36;102171.91;;;17.26;62.83
829;BME280;396;52.558;13.188;2022-07-17T08:05:03;102185.19;;;17.32;62.62
829;BME280;396;52.558;13.188;2022-07-17T08:07:30;102175.53;;;17.35;61.47
829;BME280;396;52.558;13.188;2022-07-17T08:09:57;102179.09;;;17.35;62.28
829;BME280;396;52.558;13.188;2022-07-17T08:12:24;102175.78;;;17.61;61.91
829;BME280;396;52.558;13.188;2022-07-17T08:14:52;102181.03;;;17.71;60.95
829;BME280;396;52.558;13.188;2022-07-17T08:17:19;102186.69;;;17.88;61.30
829;BME280;396;52.558;13.188;2022-07-17T08:19:45;102183.81;;;17.94;60.82
829;BME280;396;52.558;13.188;2022-07-17T08:22:12;102178.47;;;17.88;59.38
829;BME280;396;52.558;13.188;2022-07-17T08:24:39;102194.66;;;17.76;59.45
829;BME280;396;52.558;13.188;2022-07-17T08:27:05;102188.59;;;17.88;59.26
829;BME280;396;52.558;13.188;2022-07-17T08:29:32;102187.91;;;18.05;59.59
829;BME280;396;52.558;13.188;2022-07-17T08:32:00;102186.78;;;18.28;58.39
829;BME280;396;52.558;13.188;2022-07-17T08:34:26;102179.63;;;18.50;57.60
829;BME280;396;52.558;13.188;2022-07-17T08:36:53;102190.16;;;18.56;57.80
829;BME280;396;52.558;13.188;2022-07-17T08:39:19;102191.91;;;18.52;57.59
829;BME280;396;52.558;13.188;2022-07-17T08:41:46;102187.03;;;18.49;57.34
829;BME280;396;52.558;13.188;2022-07-17T08:44:14;102195.31;;;18.58;57.22
829;BME280;396;52.558;13.188;2022-07-17T08:46:40;102198.53;;;18.51;55.40
829;BME280;396;52.558;13.188;2022-07-17T08:49:09;102188.34;;;18.52;56.08
829;BME280;396;52.558;13.188;2022-07-17T08:51:36;102191.44;;;18.59;57.42
829;BME280;396;52.558;13.188;2022-07-17T08:54:03;102188.69;;;18.59;56.60
829;BME280;396;52.558;13.188;2022-07-17T08:56:29;102192.72;;;18.53;57.00
829;BME280;396;52.558;13.188;2022-07-17T08:58:56;102183.16;;;18.50;59.44
829;BME280;396;52.558;13.188;2022-07-17T09:01:23;102191.41;;;18.73;57.59
829;BME280;396;52.558;13.188;2022-07-17T09:03:54;102204.28;;;18.72;56.54
829;BME280;396;52.558;13.188;2022-07-17T09:06:23;102203.66;;;18.75;56.37
829;BME280;396;52.558;13.188;2022-07-17T09:09:00;102198.78;;;18.72;55.79
829;BME280;396;52.558;13.188;2022-07-17T09:11:27;102205.81;;;18.56;56.71
829;BME280;396;52.558;13.188;2022-07-17T09:13:54;102211.97;;;18.61;57.08
829;BME280;396;52.558;13.188;2022-07-17T09:16:20;102206.44;;;18.53;56.92
829;BME280;396;52.558;13.188;2022-07-17T09:18:49;102207.09;;;18.58;56.70
829;BME280;396;52.558;13.188;2022-07-17T09:21:17;102207.44;;;18.57;56.93
829;BME280;396;52.558;13.188;2022-07-17T09:23:57;102200.66;;;18.63;56.76
829;BME280;396;52.558;13.188;2022-07-17T09:26:24;102199.19;;;18.57;57.28
829;BME280;396;52.558;13.188;2022-07-17T09:28:51;102202.31;;;18.64;56.66
829;BME280;396;52.558;13.188;2022-07-17T09:31:25;102196.59;;;18.52;56.06
829;BME280;396;52.558;13.188;2022-07-17T09:33:52;102198.44;;;18.65;56.63
829;BME280;396;52.558;13.188;2022-07-17T09:36:19;102187.34;;;18.70;56.46
829;BME280;396;52.558;13.188;2022-07-17T09:38:48;102195.94;;;18.77;56.44
829;BME280;396;52.558;13.188;2022-07-17T09:41:16;102202.25;;;18.86;55.98
829;BME280;396;52.558;13.188;2022-07-17T09:43:48;102198.44;;;19.05;56.26
829;BME280;396;52.558;13.188;2022-07-17T09:46:18;102206.53;;;19.10;55.21
829;BME280;396;52.558;13.188;2022-07-17T09:48:46;102195.19;;;19.03;55.73
829;BME280;396;52.558;13.188;2022-07-17T09:51:18;102195.38;;;19.06;55.42
829;BME280;396;52.558;13.188;2022-07-17T09:53:48;102189.69;;;19.03;56.41
829;BME280;396;52.558;13.188;2022-07-17T09:56:17;102190.41;;;19.17;56.00
829;BME280;396;52.558;13.188;2022-07-17T09:58:46;102196.06;;;19.29;55.51
829;BME280;396;52.558;13.188;2022-07-17T10:01:14;102192.53;;;19.46;56.41
829;BME280;396;52.558;13.188;2022-07-17T10:03:42;102196.94;;;19.73;54.28
829;BME280;396;52.558;13.188;2022-07-17T10:06:09;102195.31;;;19.89;53.60
829;BME280;396;52.558;13.188;2022-07-17T10:08:37;102189.19;;;19.75;53.20
829;BME280;396;52.558;13.188;2022-07-17T10:11:05;102185.63;;;19.83;53.62
829;BME280;396;52.558;13.188;2022-07-17T10:13:32;102189.00;;;19.89;52.86
829;BME280;396;52.558;13.188;2022-07-17T10:15:59;102189.19;;;19.93;52.53
829;BME280;396;52.558;13.188;2022-07-17T10:18:35;102188.22;;;19.80;53.42
829;BME280;396;52.558;13.188;2022-07-17T10:21:09;102176.53;;;19.74;53.85
829;BME280;396;52.558;13.188;2022-07-17T10:23:37;102176.56;;;19.65;54.22
829;BME280;396;52.558;13.188;2022-07-17T10:26:05;102182.06;;;19.65;53.93
829;BME280;396;52.558;13.188;2022-07-17T10:28:43;102171.69;;;19.54;54.67
829;BME280;396;52.558;13.188;2022-07-17T10:31:14;102179.13;;;19.45;54.45
829;BME280;396;52.558;13.188;2022-07-17T10:33:54;102174.91;;;19.56;55.06
829;BME280;396;52.558;13.188;2022-07-17T10:36:32;102176.88;;;19.64;54.91
829;BME280;396;52.558;13.188;2022-07-17T10:38:58;102183.34;;;19.68;52.85
829;BME280;396;52.558;13.188;2022-07-17T10:41:26;102187.25;;;19.76;53.17
829;BME280;396;52.558;13.188;2022-07-17T10:43:53;102186.56;;;19.87;53.05
829;BME280;396;52.558;13.188;2022-07-17T10:46:23;102185.91;;;20.08;54.14
829;BME280;396;52.558;13.188;2022-07-17T10:48:49;102172.44;;;20.32;53.56
829;BME280;396;52.558;13.188;2022-07-17T10:51:17;102179.66;;;20.63;52.45
829;BME280;396;52.558;13.188;2022-07-17T10:53:44;102171.91;;;20.86;52.06
829;BME280;396;52.558;13.188;2022-07-17T10:56:11;102164.88;;;20.97;52.28
829;BME280;396;52.558;13.188;2022-07-17T10:58:41;102164.56;;;20.99;50.57
829;BME280;396;52.558;13.188;2022-07-17T11:01:10;102182.44;;;20.84;51.16
829;BME280;396;52.558;13.188;2022-07-17T11:03:39;102179.22;;;20.82;50.86
829;BME280;396;52.558;13.188;2022-07-17T11:06:17;102180.09;;;20.65;50.08
829;BME280;396;52.558;13.188;2022-07-17T11:08:46;102177.50;;;20.69;51.68
829;BME280;396;52.558;13.188;2022-07-17T11:11:15;102182.22;;;20.68;50.97
829;BME280;396;52.558;13.188;2022-07-17T11:13:43;102184.41;;;20.83;51.90
829;BME280;396;52.558;13.188;2022-07-17T11:16:10;102172.34;;;20.97;50.32
829;BME280;396;52.558;13.188;2022-07-17T11:18:46;102174.47;;;21.21;50.07
829;BME280;396;52.558;13.188;2022-07-17T11:21:13;102178.78;;;21.30;49.12
829;BME280;396;52.558;13.188;2022-07-17T11:23:50;102171.38;;;21.22;48.20
829;BME280;396;52.558;13.188;2022-07-17T11:26:18;102172.44;;;21.38;47.94
829;BME280;396;52.558;13.188;2022-07-17T11:28:48;102168.56;;;21.73;45.70
829;BME280;396;52.558;13.188;2022-07-17T11:31:19;102162.78;;;21.99;45.39
829;BME280;396;52.558;13.188;2022-07-17T11:33:51;102171.78;;;22.41;44.61
829;BME280;396;52.558;13.188;2022-07-17T11:36:26;102179.06;;;22.46;44.33
829;BME280;396;52.558;13.188;2022-07-17T11:38:55;102180.28;;;22.24;45.71
829;BME280;396;52.558;13.188;2022-07-17T11:41:30;102169.81;;;22.29;45.48
829;BME280;396;52.558;13.188;2022-07-17T11:43:59;102172.63;;;22.54;45.41
829;BME280;396;52.558;13.188;2022-07-17T11:46:27;102165.50;;;22.89;44.19
829;BME280;396;52.558;13.188;2022-07-17T11:48:54;102168.78;;;23.32;45.13
829;BME280;396;52.558;13.188;2022-07-17T11:51:21;102163.91;;;23.81;42.38
829;BME280;396;52.558;13.188;2022-07-17T11:53:47;102169.69;;;24.04;42.81
829;BME280;396;52.558;13.188;2022-07-17T11:56:20;102172.25;;;24.57;42.39
829;BME280;396;52.558;13.188;2022-07-17T11:58:47;102173.78;;;25.05;42.33
829;BME280;396;52.558;13.188;2022-07-17T12:01:16;102164.03;;;25.47;39.67
829;BME280;396;52.558;13.188;2022-07-17T12:03:42;102165.81;;;25.55;38.79
829;BME280;396;52.558;13.188;2022-07-17T12:06:09;102171.53;;;25.27;38.12
829;BME280;396;52.558;13.188;2022-07-17T12:08:36;102162.78;;;25.44;40.17
829;BME280;396;52.558;13.188;2022-07-17T12:11:05;102171.25;;;25.71;39.13
829;BME280;396;52.558;13.188;2022-07-17T12:13:42;102166.94;;;25.54;38.96
829;BME280;396;52.558;13.188;2022-07-17T12:16:21;102160.94;;;25.71;40.77
829;BME280;396;52.558;13.188;2022-07-17T12:18:56;102161.25;;;26.05;39.79
829;BME280;396;52.558;13.188;2022-07-17T12:21:23;102163.22;;;25.85;37.97
829;BME280;396;52.558;13.188;2022-07-17T12:23:57;102163.94;;;26.01;37.70
829;BME280;396;52.558;13.188;2022-07-17T12:26:24;102158.16;;;26.10;36.74
829;BME280;396;52.558;13.188;2022-07-17T12:28:51;102164.75;;;26.02;36.83
829;BME280;396;52.558;13.188;2022-07-17T12:31:18;102144.38;;;25.94;37.08
829;BME280;396;52.558;13.188;2022-07-17T12:33:46;102151.06;;;26.35;36.56
829;BME280;396;52.558;13.188;2022-07-17T12:36:14;102137.50;;;26.53;36.62
829;BME280;396;52.558;13.188;2022-07-17T12:38:40;102147.38;;;26.77;39.62
829;BME280;396;52.558;13.188;2022-07-17T12:41:07;102147.06;;;27.09;34.10
829;BME280;396;52.558;13.188;2022-07-17T12:43:34;102145.00;;;27.32;35.00
829;BME280;396;52.558;13.188;2022-07-17T12:46:01;102139.09;;;27.07;34.77
829;BME280;396;52.558;13.188;2022-07-17T12:48:27;102126.31;;;27.03;34.63
829;BME280;396;52.558;13.188;2022-07-17T12:50:55;102134.97;;;26.98;34.85
829;BME280;396;52.558;13.188;2022-07-17T12:53:22;102127.38;;;26.68;35.12
829;BME280;396;52.558;13.188;2022-07-17T12:55:49;102147.91;;;27.09;37.11
829;BME280;396;52.558;13.188;2022-07-17T12:58:15;102125.88;;;27.01;34.92
829;BME280;396;52.558;13.188;2022-07-17T13:00:42;102124.22;;;27.23;35.20
829;BME280;396;52.558;13.188;2022-07-17T13:03:08;102120.22;;;27.54;34.91
829;BME280;396;52.558;13.188;2022-07-17T13:05:35;102133.94;;;27.39;34.31
829;BME280;396;52.558;13.188;2022-07-17T13:08:03;102115.97;;;27.03;35.29
829;BME280;396;52.558;13.188;2022-07-17T13:10:30;102117.19;;;27.32;34.99
829;BME280;396;52.558;13.188;2022-07-17T13:12:57;102119.94;;;27.66;34.88
829;BME280;396;52.558;13.188;2022-07-17T13:15:23;102120.59;;;28.30;35.59
829;BME280;396;52.558;13.188;2022-07-17T13:17:50;102121.06;;;28.91;33.67
829;BME280;396;52.558;13.188;2022-07-17T13:20:16;102117.28;;;29.31;32.43
829;BME280;396;52.558;13.188;2022-07-17T13:22:43;102116.78;;;29.11;32.05
829;BME280;396;52.558;13.188;2022-07-17T13:25:11;102121.81;;;28.84;32.63